Airport View

Enter AWOS ICAO identifier for current METAR.

ex. KFNL

KTAN 181052Z AUTO 00000KT 10SM CLR M11/M19 A3058 RMK AO2 SLP354 T11111194

18 Jan 2020 11:24

Frequency: 132.675

Phone: 508-824-5005

Other Area AWOS: KEWB - KPYM - KOWD - KGHG

TAF KPVD 180530Z 1806/1906 36011KT P6SM SKC FM181900 17005KT P6SM VCSH OVC060 FM182200 17007KT 1SM -SN BR OVC020 FM190000 15008KT 1/4SM +SN FZFG OVC010 FM190300 17010G17KT 5SM -SNRA OVC003 FM190500 20008KT 6SM BR VCSH OVC003